Time;durP1;ratioP1;P1;durP2;ratioP2;P2;SDS_P1;SDS_P2;PMS_P1;PMS_P2;Temp;Humidity;BMP_temperature;BMP_pressure;BME280_temperature;BME280_humidity;BME280_pressure;Samples;Min_cycle;Max_cycle;Signal;HPM_P1;HPM_P2
2023/10/22 00:01:56;;;;;;;5.47;1.60;;;;;;;11.98;61.69;99378.59;4971294;28;20104;-75
2023/10/22 00:04:21;;;;;;;6.32;1.50;;;;;;;11.97;61.81;99376.84;4971054;28;20027;-75
2023/10/22 00:06:47;;;;;;;6.60;1.50;;;;;;;11.96;61.82;99368.97;4971327;28;20058;-77
2023/10/22 00:09:12;;;;;;;8.48;1.73;;;;;;;11.95;61.73;99368.13;4970071;28;20027;-74
2023/10/22 00:11:38;;;;;;;7.20;1.80;;;;;;;11.90;62.25;99370.84;4971194;28;20406;-74
2023/10/22 00:14:03;;;;;;;6.90;1.40;;;;;;;11.88;62.13;99369.16;4970965;28;20102;-74
2023/10/22 00:16:29;;;;;;;5.10;1.43;;;;;;;11.82;62.34;99367.53;4971115;28;20042;-74
2023/10/22 00:18:54;;;;;;;5.67;1.57;;;;;;;11.80;62.33;99364.03;4970925;28;20055;-74
2023/10/22 00:21:19;;;;;;;6.00;1.63;;;;;;;11.78;62.22;99364.09;4971123;28;20538;-76
2023/10/22 00:23:45;;;;;;;7.20;1.60;;;;;;;11.75;62.13;99366.81;4971176;28;20475;-74
2023/10/22 00:26:13;;;;;;;6.93;1.53;;;;;;;11.74;62.35;99367.72;4964053;28;20479;-74
2023/10/22 00:28:39;;;;;;;6.57;1.43;;;;;;;11.72;62.22;99366.88;4951455;29;20278;-74
2023/10/22 00:31:04;;;;;;;6.23;1.30;;;;;;;11.70;62.44;99367.81;4951475;29;20039;-75
2023/10/22 00:33:30;;;;;;;8.03;1.63;;;;;;;11.68;62.05;99370.47;4951908;28;20334;-77
2023/10/22 00:35:56;;;;;;;6.77;1.50;;;;;;;11.62;62.59;99358.31;4970848;28;20037;-77
2023/10/22 00:38:22;;;;;;;7.63;1.40;;;;;;;11.60;62.80;99359.25;4970720;28;20491;-74
2023/10/22 00:40:47;;;;;;;6.87;1.73;;;;;;;11.55;62.53;99358.50;4970748;28;20033;-73
2023/10/22 00:43:12;;;;;;;6.60;1.53;;;;;;;11.54;62.57;99357.59;4969814;28;20031;-73
2023/10/22 00:45:38;;;;;;;6.83;1.53;;;;;;;11.50;62.25;99361.22;4987491;28;20042;-74
2023/10/22 00:48:08;;;;;;;5.93;1.50;;;;;;;11.42;62.62;99361.38;4989379;28;20046;-75
2023/10/22 00:50:34;;;;;;;5.53;1.48;;;;;;;11.36;63.03;99366.81;4990085;28;20026;-76
2023/10/22 00:53:00;;;;;;;5.88;1.50;;;;;;;11.30;62.91;99369.59;4990159;28;20122;-81
2023/10/22 00:55:25;;;;;;;7.73;1.47;;;;;;;11.26;63.05;99367.91;4972246;28;20106;-82
2023/10/22 00:57:51;;;;;;;5.90;1.40;;;;;;;11.26;62.78;99378.47;4970620;28;20031;-76
2023/10/22 01:00:19;;;;;;;6.57;1.33;;;;;;;11.26;63.10;99381.94;4968776;28;20502;-79
2023/10/22 01:02:45;;;;;;;7.25;1.77;;;;;;;11.22;63.07;99380.28;4969714;28;20054;-79
2023/10/22 01:05:10;;;;;;;8.10;1.50;;;;;;;11.17;62.95;99384.78;4970316;28;20173;-81
2023/10/22 01:07:36;;;;;;;6.03;1.33;;;;;;;11.12;63.25;99394.56;4969345;28;20054;-83
2023/10/22 01:10:03;;;;;;;6.87;1.50;;;;;;;11.11;63.06;99391.03;4970446;28;20035;-79
2023/10/22 01:12:34;;;;;;;5.82;1.70;;;;;;;11.12;63.37;99395.41;4970960;28;20285;-75
2023/10/22 01:15:00;;;;;;;8.57;1.75;;;;;;;11.10;63.23;99389.31;4973647;28;20499;-76
2023/10/22 01:17:26;;;;;;;8.40;2.08;;;;;;;11.06;63.67;99396.41;4956582;28;20035;-76
2023/10/22 01:19:51;;;;;;;5.67;1.50;;;;;;;10.99;63.57;99393.94;4974651;28;20063;-77
2023/10/22 01:22:17;;;;;;;6.63;1.92;;;;;;;10.89;63.29;99396.75;4974242;28;20128;-75
2023/10/22 01:24:42;;;;;;;8.27;1.77;;;;;;;10.88;63.65;99405.53;4974224;28;20027;-76
2023/10/22 01:27:08;;;;;;;8.67;2.03;;;;;;;10.88;63.71;99395.00;4973642;28;20438;-75
2023/10/22 01:29:33;;;;;;;6.37;1.50;;;;;;;10.87;63.63;99406.44;4974358;28;20033;-75
2023/10/22 01:31:58;;;;;;;5.53;1.50;;;;;;;10.84;63.59;99406.50;4973936;28;20078;-76
2023/10/22 01:34:24;;;;;;;5.07;1.60;;;;;;;10.85;64.05;99408.22;4956014;28;20034;-77
2023/10/22 01:36:49;;;;;;;7.32;1.98;;;;;;;10.85;63.79;99408.22;4974049;28;20027;-75
2023/10/22 01:39:14;;;;;;;7.87;1.63;;;;;;;10.84;63.87;99398.59;4973985;28;20062;-76
2023/10/22 01:41:41;;;;;;;7.17;2.00;;;;;;;10.84;63.63;99409.13;4956366;28;20038;-76
2023/10/22 01:44:07;;;;;;;5.15;1.55;;;;;;;10.82;63.62;99407.41;4978576;28;20014;-75
2023/10/22 01:46:32;;;;;;;6.60;1.30;;;;;;;10.80;63.85;99410.09;4993451;28;20034;-75
2023/10/22 01:48:58;;;;;;;6.65;1.80;;;;;;;10.76;63.71;99405.78;4990527;28;20645;-75
2023/10/22 01:51:23;;;;;;;8.10;1.77;;;;;;;10.73;64.20;99405.81;4973520;28;20039;-75
2023/10/22 01:53:49;;;;;;;8.00;1.83;;;;;;;10.71;64.02;99408.50;4973771;28;20590;-75
2023/10/22 01:56:15;;;;;;;6.53;1.63;;;;;;;10.70;63.68;99413.78;4956477;28;20034;-75
2023/10/22 01:58:40;;;;;;;5.18;1.40;;;;;;;10.67;64.16;99411.19;4973663;28;20439;-75
2023/10/22 02:01:06;;;;;;;5.57;1.73;;;;;;;10.66;63.94;99427.91;4973586;28;20027;-77
2023/10/22 02:03:35;;;;;;;7.50;1.93;;;;;;;10.62;64.31;99417.44;4973112;28;20049;-75
2023/10/22 02:06:01;;;;;;;6.50;1.50;;;;;;;10.59;64.07;99414.84;4955194;28;20046;-75
2023/10/22 02:08:26;;;;;;;8.23;1.90;;;;;;;10.58;64.12;99406.97;4961293;28;20057;-75
2023/10/22 02:10:52;;;;;;;6.33;1.77;;;;;;;10.54;63.77;99405.28;4954551;28;20472;-79
2023/10/22 02:13:17;;;;;;;6.80;1.63;;;;;;;10.51;64.13;99405.34;4937040;29;20031;-77
2023/10/22 02:15:43;;;;;;;6.20;1.55;;;;;;;10.48;64.12;99396.63;4970481;28;20623;-75
2023/10/22 02:18:09;;;;;;;6.40;1.60;;;;;;;10.45;64.20;99403.69;4972768;28;20476;-75
2023/10/22 02:20:34;;;;;;;11.45;1.83;;;;;;;10.42;64.26;99395.84;4973151;28;20035;-75
2023/10/22 02:23:00;;;;;;;8.27;1.63;;;;;;;10.40;63.72;99397.59;4972572;28;20031;-75
2023/10/22 02:25:27;;;;;;;6.60;1.83;;;;;;;10.37;63.88;99397.66;4971296;28;20027;-75
2023/10/22 02:27:53;;;;;;;7.27;1.77;;;;;;;10.32;64.02;99403.88;4972756;28;20023;-75
2023/10/22 02:30:19;;;;;;;6.18;2.03;;;;;;;10.30;64.05;99402.16;4973442;28;20027;-75
2023/10/22 02:32:44;;;;;;;7.70;2.00;;;;;;;10.25;63.92;99394.38;4972687;28;20530;-81
2023/10/22 02:35:10;;;;;;;7.03;2.13;;;;;;;10.23;64.54;99400.53;4973076;28;20026;-77
2023/10/22 02:37:36;;;;;;;9.30;2.05;;;;;;;10.21;64.34;99403.19;4955349;28;20496;-75
2023/10/22 02:40:03;;;;;;;7.53;2.20;;;;;;;10.19;64.50;99400.59;4954507;28;20161;-77
2023/10/22 02:42:29;;;;;;;8.37;2.10;;;;;;;10.19;64.73;99402.34;4972441;28;20367;-80
2023/10/22 02:44:55;;;;;;;7.82;2.05;;;;;;;10.17;64.61;99397.13;4984074;28;20023;-76
2023/10/22 02:47:21;;;;;;;8.77;2.20;;;;;;;10.15;64.63;99395.38;4991999;28;20019;-75
2023/10/22 02:49:46;;;;;;;6.63;2.20;;;;;;;10.12;64.41;99403.34;4992453;28;20110;-76
2023/10/22 02:52:12;;;;;;;9.53;2.20;;;;;;;10.07;65.00;99405.19;4992198;28;20121;-81
2023/10/22 02:54:37;;;;;;;7.55;1.88;;;;;;;10.01;65.24;99412.28;4980745;28;20396;-76
2023/10/22 02:57:03;;;;;;;7.27;2.10;;;;;;;10.02;64.89;99397.34;4971790;28;20683;-81
2023/10/22 02:59:28;;;;;;;8.23;2.07;;;;;;;10.04;64.74;99392.94;4972125;28;20035;-76
2023/10/22 03:01:53;;;;;;;8.75;1.65;;;;;;;10.04;65.21;99396.44;4972503;28;20030;-75
2023/10/22 03:04:19;;;;;;;8.13;1.97;;;;;;;10.03;65.06;99399.09;4955094;28;20041;-81
2023/10/22 03:06:44;;;;;;;9.90;1.90;;;;;;;10.00;64.79;99399.13;4972370;28;20054;-76
2023/10/22 03:09:09;;;;;;;7.17;1.97;;;;;;;9.99;64.81;99398.25;4972516;28;20530;-78
2023/10/22 03:11:36;;;;;;;7.83;2.23;;;;;;;9.98;65.11;99396.53;4972511;28;20066;-77
2023/10/22 03:14:01;;;;;;;6.07;1.67;;;;;;;9.97;65.20;99393.94;4971578;28;20037;-74
2023/10/22 03:16:27;;;;;;;7.20;1.67;;;;;;;9.96;65.13;99400.94;4956598;28;20039;-75
2023/10/22 03:18:52;;;;;;;11.77;2.33;;;;;;;9.95;65.14;99399.19;4952613;29;20058;-75
2023/10/22 03:21:19;;;;;;;7.40;2.13;;;;;;;9.94;65.16;99394.84;4952947;29;20612;-74
2023/10/22 03:23:45;;;;;;;6.38;2.13;;;;;;;9.94;65.00;99391.34;4965395;28;20042;-78
2023/10/22 03:26:14;;;;;;;8.70;2.43;;;;;;;9.96;65.06;99400.09;4972009;28;20514;-75
2023/10/22 03:28:40;;;;;;;6.70;2.00;;;;;;;9.96;65.21;99393.03;4971916;28;20467;-75
2023/10/22 03:31:06;;;;;;;10.15;2.42;;;;;;;9.95;65.15;99407.09;4953678;28;20074;-75
2023/10/22 03:33:32;;;;;;;9.15;2.17;;;;;;;9.91;65.29;99408.03;4971344;28;20034;-75
2023/10/22 03:35:58;;;;;;;8.07;2.00;;;;;;;9.87;65.72;99415.09;4971406;28;20061;-75
2023/10/22 03:38:25;;;;;;;8.27;2.13;;;;;;;9.88;65.47;99413.34;4971543;28;20031;-75
2023/10/22 03:41:02;;;;;;;9.88;2.13;;;;;;;9.87;66.19;99415.09;4971902;28;20596;-75
2023/10/22 03:43:29;;;;;;;10.35;1.75;;;;;;;9.90;65.80;99419.44;4971940;28;20488;-75
2023/10/22 03:45:55;;;;;;;7.43;1.80;;;;;;;9.91;65.90;99421.19;4991022;28;20058;-76
2023/10/22 03:48:22;;;;;;;10.05;2.47;;;;;;;9.87;66.81;99422.97;4984994;28;20038;-75
2023/10/22 03:50:48;;;;;;;9.20;2.40;;;;;;;9.81;66.93;99415.19;4970882;28;20043;-75
2023/10/22 03:53:13;;;;;;;8.15;2.15;;;;;;;9.77;67.38;99417.03;4971403;28;20030;-75
2023/10/22 03:55:39;;;;;;;6.57;1.60;;;;;;;9.79;66.86;99429.28;4971598;28;20030;-75
2023/10/22 03:58:04;;;;;;;10.00;1.90;;;;;;;9.82;66.92;99416.94;4971596;28;20069;-75
2023/10/22 04:00:30;;;;;;;8.07;1.80;;;;;;;9.85;66.99;99421.28;4971470;28;20069;-75
2023/10/22 04:02:55;;;;;;;8.07;1.97;;;;;;;9.84;66.82;99424.81;4971129;28;20034;-75
2023/10/22 04:05:20;;;;;;;8.93;2.33;;;;;;;9.83;66.37;99417.81;4970592;28;20912;-75
2023/10/22 04:07:46;;;;;;;7.40;1.60;;;;;;;9.83;66.47;99423.06;4971236;28;20031;-75
2023/10/22 04:10:11;;;;;;;6.90;1.50;;;;;;;9.84;66.42;99423.03;4971214;28;20154;-75
2023/10/22 04:12:36;;;;;;;8.57;1.70;;;;;;;9.85;66.67;99426.53;4971121;28;20039;-75
2023/10/22 04:15:03;;;;;;;7.67;1.40;;;;;;;9.84;66.64;99424.81;4965670;28;20524;-75
2023/10/22 04:17:29;;;;;;;7.22;1.80;;;;;;;9.79;66.65;99426.66;4953700;28;20395;-75
2023/10/22 04:19:55;;;;;;;7.83;2.00;;;;;;;9.76;66.78;99424.91;4970934;28;20039;-76
2023/10/22 04:22:20;;;;;;;10.43;2.13;;;;;;;9.76;66.94;99423.13;4971164;28;20374;-76
2023/10/22 04:24:46;;;;;;;8.20;1.97;;;;;;;9.79;66.54;99431.91;4970068;28;20124;-75
2023/10/22 04:27:11;;;;;;;9.95;1.92;;;;;;;9.78;66.48;99436.28;4958815;28;20055;-75
2023/10/22 04:29:38;;;;;;;8.07;2.13;;;;;;;9.75;66.71;99431.91;4951767;29;20042;-75
2023/10/22 04:32:04;;;;;;;6.50;1.52;;;;;;;9.74;66.79;99429.31;4951548;29;20043;-75
2023/10/22 04:34:29;;;;;;;6.77;1.27;;;;;;;9.73;66.72;99424.97;4934053;29;20114;-75
2023/10/22 04:36:54;;;;;;;7.50;1.50;;;;;;;9.74;67.16;99432.81;4951725;29;20035;-75
2023/10/22 04:39:20;;;;;;;5.45;1.27;;;;;;;9.74;66.69;99430.19;4951639;29;20420;-75
2023/10/22 04:41:45;;;;;;;5.23;1.20;;;;;;;9.73;66.89;99430.22;4966743;28;20117;-75
2023/10/22 04:44:11;;;;;;;4.87;1.33;;;;;;;9.69;66.96;99434.63;4976199;28;20023;-76
2023/10/22 04:46:36;;;;;;;5.17;1.50;;;;;;;9.64;67.26;99441.72;4989945;28;20097;-75
2023/10/22 04:49:01;;;;;;;6.97;1.90;;;;;;;9.61;66.93;99431.25;4989006;28;20077;-75
2023/10/22 04:51:27;;;;;;;7.17;1.47;;;;;;;9.62;67.41;99427.75;4972656;28;20277;-75
2023/10/22 04:53:52;;;;;;;5.83;1.13;;;;;;;9.64;66.99;99425.97;4984861;28;20050;-75
2023/10/22 04:56:18;;;;;;;5.83;1.23;;;;;;;9.65;66.95;99430.31;4970559;28;20034;-75
2023/10/22 04:58:43;;;;;;;4.97;1.30;;;;;;;9.67;66.96;99428.53;4969701;28;20046;-75
2023/10/22 05:01:09;;;;;;;7.60;1.10;;;;;;;9.68;66.77;99418.91;4964921;28;20730;-75
2023/10/22 05:03:35;;;;;;;8.18;1.25;;;;;;;9.69;67.05;99416.25;4957206;28;20110;-75
2023/10/22 05:06:06;;;;;;;7.10;1.37;;;;;;;9.66;66.82;99424.16;4970343;28;20122;-75
2023/10/22 05:08:34;;;;;;;5.50;1.00;;;;;;;9.61;67.11;99423.38;4970444;28;20023;-76
2023/10/22 05:11:00;;;;;;;8.00;1.40;;;;;;;9.56;67.36;99430.47;4970782;28;20039;-76
2023/10/22 05:13:25;;;;;;;5.75;1.13;;;;;;;9.50;67.32;99438.41;4970627;28;20049;-75
2023/10/22 05:15:54;;;;;;;5.73;1.07;;;;;;;9.40;67.67;99450.78;4962497;28;20119;-75
2023/10/22 05:18:20;;;;;;;5.93;0.90;;;;;;;9.35;67.91;99456.13;4970258;28;20372;-82
2023/10/22 05:20:45;;;;;;;7.00;1.17;;;;;;;9.36;67.73;99460.47;4970332;28;20089;-80
2023/10/22 05:23:11;;;;;;;8.30;1.30;;;;;;;9.39;67.69;99449.03;4970468;28;20038;-75
2023/10/22 05:25:37;;;;;;;7.23;1.20;;;;;;;9.40;67.50;99451.66;4970059;28;20026;-75
2023/10/22 05:28:02;;;;;;;6.05;1.15;;;;;;;9.40;67.92;99456.94;4970212;28;20027;-80
2023/10/22 05:30:30;;;;;;;5.80;1.10;;;;;;;9.33;68.38;99453.50;4970469;28;20037;-80
2023/10/22 05:32:56;;;;;;;6.15;1.05;;;;;;;9.30;68.18;99460.56;4969147;28;20089;-78
2023/10/22 05:35:21;;;;;;;6.70;1.10;;;;;;;9.30;68.35;99458.78;4970382;28;20026;-79
2023/10/22 05:37:48;;;;;;;5.43;1.20;;;;;;;9.31;67.71;99452.66;4970271;28;20029;-75
2023/10/22 05:40:15;;;;;;;4.15;1.10;;;;;;;9.31;68.19;99452.66;4970271;28;20061;-75
2023/10/22 05:42:40;;;;;;;5.68;0.98;;;;;;;9.32;67.87;99454.38;4970050;28;20035;-75
2023/10/22 05:45:06;;;;;;;8.33;1.00;;;;;;;9.32;68.17;99446.50;4982814;28;20086;-77
2023/10/22 05:47:32;;;;;;;4.72;0.90;;;;;;;9.29;68.32;99450.94;4989209;28;20050;-75
2023/10/22 05:50:01;;;;;;;6.27;1.07;;;;;;;9.24;68.44;99453.63;4970235;28;20102;-76
2023/10/22 05:52:28;;;;;;;5.00;0.80;;;;;;;9.23;68.44;99454.50;4970225;28;20431;-75
2023/10/22 05:54:54;;;;;;;4.53;0.90;;;;;;;9.24;68.34;99456.25;4970002;28;20023;-75
2023/10/22 05:57:21;;;;;;;8.10;1.10;;;;;;;9.25;68.30;99447.47;4953170;28;20399;-75
2023/10/22 05:59:47;;;;;;;4.63;0.90;;;;;;;9.25;67.99;99451.84;4972472;28;20031;-77
2023/10/22 06:02:12;;;;;;;8.45;0.85;;;;;;;9.24;68.00;99444.84;4973141;28;20031;-75
2023/10/22 06:04:38;;;;;;;5.03;0.80;;;;;;;9.24;67.99;99447.47;4973389;28;20058;-76
2023/10/22 06:07:04;;;;;;;7.13;1.27;;;;;;;9.21;67.91;99448.41;4972437;28;20294;-75
2023/10/22 06:09:29;;;;;;;3.58;0.65;;;;;;;9.18;68.54;99446.66;4973683;28;20054;-75
2023/10/22 06:11:55;;;;;;;5.13;0.80;;;;;;;9.16;68.48;99445.81;4973384;28;20118;-75
2023/10/22 06:14:20;;;;;;;4.70;0.82;;;;;;;9.16;67.94;99448.44;4967689;28;20489;-76
2023/10/22 06:16:46;;;;;;;4.70;1.07;;;;;;;9.14;67.99;99455.47;4946661;28;20034;-75
2023/10/22 06:19:13;;;;;;;4.93;0.90;;;;;;;9.07;68.68;99463.44;4973044;28;20023;-80
2023/10/22 06:21:38;;;;;;;4.10;0.77;;;;;;;9.00;68.50;99468.75;4973252;28;20433;-80
2023/10/22 06:24:04;;;;;;;4.57;0.83;;;;;;;8.99;68.45;99476.63;4972051;28;20031;-80
2023/10/22 06:26:29;;;;;;;5.50;1.08;;;;;;;9.00;68.49;99478.38;4973046;28;20154;-76
2023/10/22 06:28:54;;;;;;;5.13;0.90;;;;;;;9.02;68.30;99487.13;4973081;28;20061;-79
2023/10/22 06:31:20;;;;;;;5.50;0.83;;;;;;;9.01;68.51;99470.50;4973441;28;20030;-81
2023/10/22 06:33:45;;;;;;;6.10;0.70;;;;;;;9.03;68.13;99479.22;4972889;28;20105;-79
2023/10/22 06:36:12;;;;;;;5.23;1.20;;;;;;;9.05;68.45;99481.84;4973163;28;20625;-74
2023/10/22 06:38:37;;;;;;;6.07;0.85;;;;;;;9.07;68.42;99485.34;4973044;28;20031;-73
2023/10/22 06:41:03;;;;;;;4.82;0.90;;;;;;;9.09;68.27;99480.94;4971974;28;20399;-74
2023/10/22 06:43:28;;;;;;;7.33;1.27;;;;;;;9.10;68.34;99479.16;4972570;28;20031;-75
2023/10/22 06:45:59;;;;;;;6.13;0.90;;;;;;;9.10;68.38;99490.56;4992171;28;20031;-74
2023/10/22 06:48:24;;;;;;;5.18;0.90;;;;;;;9.09;68.55;99491.44;4992076;28;20022;-78
2023/10/22 06:50:50;;;;;;;4.13;0.77;;;;;;;9.05;68.75;99490.59;4992291;28;20046;-77
2023/10/22 06:53:15;;;;;;;3.20;0.80;;;;;;;9.07;68.62;99495.84;4991713;28;20031;-77
2023/10/22 06:55:42;;;;;;;8.37;0.93;;;;;;;9.13;68.87;99495.78;4972753;28;20153;-81
2023/10/22 06:58:07;;;;;;;6.53;0.90;;;;;;;9.20;68.31;99496.56;4971399;28;20347;-75
2023/10/22 07:00:32;;;;;;;9.10;1.40;;;;;;;9.24;68.49;99502.66;4972412;28;20166;-75
2023/10/22 07:02:58;;;;;;;3.80;1.00;;;;;;;9.23;68.89;99500.91;4972251;28;20500;-75
2023/10/22 07:05:23;;;;;;;6.43;1.13;;;;;;;9.25;68.87;99504.38;4972465;28;20050;-81
2023/10/22 07:07:48;;;;;;;5.87;1.00;;;;;;;9.27;68.83;99497.34;4972371;28;20030;-82
2023/10/22 07:10:14;;;;;;;7.53;1.23;;;;;;;9.29;68.99;99501.72;4971679;28;20537;-81
2023/10/22 07:12:39;;;;;;;5.75;1.10;;;;;;;9.32;69.13;99501.69;4972299;28;20035;-82
2023/10/22 07:15:06;;;;;;;7.00;1.10;;;;;;;9.31;69.75;99514.84;4971115;28;20439;-76
2023/10/22 07:17:31;;;;;;;8.57;1.20;;;;;;;9.28;70.88;99509.59;4971748;28;20019;-75
2023/10/22 07:19:56;;;;;;;7.57;1.10;;;;;;;9.31;70.24;99507.81;4972380;28;20046;-82
2023/10/22 07:22:22;;;;;;;5.50;1.17;;;;;;;9.37;69.97;99514.78;4972252;28;20035;-82
2023/10/22 07:24:49;;;;;;;6.17;1.33;;;;;;;9.42;70.29;99512.09;4971634;28;20090;-80
2023/10/22 07:27:15;;;;;;;7.22;1.00;;;;;;;9.49;69.96;99513.75;4971941;28;20030;-80
2023/10/22 07:29:40;;;;;;;6.70;0.93;;;;;;;9.57;70.08;99513.69;4972056;28;20399;-75
2023/10/22 07:32:06;;;;;;;4.73;0.97;;;;;;;9.67;69.68;99507.41;4970852;28;20043;-76
2023/10/22 07:34:32;;;;;;;6.80;0.98;;;;;;;9.80;69.52;99507.25;4971785;28;20037;-75
2023/10/22 07:36:57;;;;;;;4.93;0.80;;;;;;;9.88;69.29;99505.38;4972030;28;20034;-75
2023/10/22 07:39:22;;;;;;;5.93;0.90;;;;;;;9.97;69.32;99526.28;4971593;28;20030;-75
2023/10/22 07:41:48;;;;;;;5.33;0.90;;;;;;;10.02;69.40;99521.88;4971854;28;20121;-76
2023/10/22 07:44:13;;;;;;;6.87;1.20;;;;;;;10.09;69.44;99516.50;4977449;28;20545;-82
2023/10/22 07:46:38;;;;;;;6.53;0.93;;;;;;;10.18;69.60;99521.63;4991162;28;20050;-76
2023/10/22 07:49:04;;;;;;;8.13;1.30;;;;;;;10.22;70.01;99528.56;4980187;28;20034;-80
2023/10/22 07:51:29;;;;;;;6.07;1.00;;;;;;;10.26;70.10;99521.53;4971508;28;20038;-82
2023/10/22 07:53:55;;;;;;;9.33;1.23;;;;;;;10.30;69.91;99531.09;4971445;28;20030;-76
2023/10/22 07:56:20;;;;;;;7.30;1.23;;;;;;;10.29;70.07;99535.50;4971554;28;20049;-79
2023/10/22 07:58:46;;;;;;;5.93;1.07;;;;;;;10.33;69.72;99531.06;4971776;28;20034;-82
2023/10/22 08:01:12;;;;;;;8.90;1.40;;;;;;;10.39;69.70;99530.09;4971581;28;20088;-76
2023/10/22 08:03:37;;;;;;;4.90;1.20;;;;;;;10.42;69.05;99528.34;4970946;28;20411;-77
2023/10/22 08:06:04;;;;;;;5.10;0.93;;;;;;;10.46;69.46;99526.50;4963703;28;20043;-72
2023/10/22 08:08:29;;;;;;;5.80;1.13;;;;;;;10.47;69.42;99526.50;4955549;28;20062;-76
2023/10/22 08:10:59;;;;;;;8.32;1.50;;;;;;;10.50;69.09;99530.84;4953714;28;20031;-77
2023/10/22 08:13:25;;;;;;;8.23;1.30;;;;;;;10.51;69.21;99527.31;4971104;28;20031;-76
2023/10/22 08:15:51;;;;;;;9.23;1.50;;;;;;;10.55;69.18;99521.09;4971146;28;20065;-75
2023/10/22 08:18:16;;;;;;;7.93;1.30;;;;;;;10.65;68.71;99523.59;4970702;28;20491;-77
2023/10/22 08:20:42;;;;;;;5.87;1.37;;;;;;;10.71;68.86;99516.47;4971007;28;20084;-77
2023/10/22 08:23:08;;;;;;;7.20;1.60;;;;;;;10.79;68.33;99516.34;4970078;28;20027;-76
2023/10/22 08:25:33;;;;;;;10.83;2.53;;;;;;;10.86;68.66;99517.97;4970502;28;20161;-76
2023/10/22 08:27:59;;;;;;;8.63;1.65;;;;;;;10.95;68.13;99518.69;4970890;28;20113;-76
2023/10/22 08:30:24;;;;;;;7.60;2.40;;;;;;;10.97;67.83;99522.16;4970839;28;20119;-77
2023/10/22 08:32:51;;;;;;;8.20;1.77;;;;;;;10.99;68.00;99517.75;4970412;28;20037;-75
2023/10/22 08:35:16;;;;;;;7.40;2.35;;;;;;;11.03;67.95;99519.44;4970720;28;20047;-75
2023/10/22 08:37:41;;;;;;;10.33;2.83;;;;;;;11.09;67.77;99519.31;4970751;28;20131;-75
2023/10/22 08:40:08;;;;;;;9.90;2.33;;;;;;;11.16;67.41;99520.94;4970218;28;20062;-75
2023/10/22 08:42:35;;;;;;;8.98;2.38;;;;;;;11.22;67.77;99516.47;4970359;28;20061;-76
2023/10/22 08:45:06;;;;;;;7.20;1.70;;;;;;;11.27;67.24;99512.81;4982848;28;20046;-76
2023/10/22 08:47:33;;;;;;;7.25;1.20;;;;;;;11.35;67.60;99510.03;4989757;28;20022;-75
2023/10/22 08:50:00;;;;;;;6.15;1.08;;;;;;;11.39;67.35;99508.22;4989858;28;20034;-75
2023/10/22 08:52:27;;;;;;;6.35;1.40;;;;;;;11.41;67.81;99512.56;4989821;28;20105;-77
2023/10/22 08:54:52;;;;;;;5.95;1.33;;;;;;;11.46;67.28;99507.19;4976762;28;20487;-76
2023/10/22 08:57:20;;;;;;;8.40;1.43;;;;;;;11.52;67.40;99519.41;4970080;28;20058;-80
2023/10/22 08:59:47;;;;;;;5.30;1.00;;;;;;;11.55;67.51;99529.88;4957496;28;20398;-77
2023/10/22 09:02:16;;;;;;;7.80;1.40;;;;;;;11.56;67.68;99528.97;4965730;28;20057;-75
2023/10/22 09:04:42;;;;;;;5.07;1.10;;;;;;;11.61;67.37;99521.84;4969995;28;20030;-75
2023/10/22 09:07:07;;;;;;;5.55;1.40;;;;;;;11.67;67.12;99518.22;4970276;28;20042;-75
2023/10/22 09:09:38;;;;;;;7.07;1.67;;;;;;;11.74;67.40;99518.06;4970433;28;20035;-75
2023/10/22 09:12:04;;;;;;;8.30;1.40;;;;;;;11.76;67.43;99515.38;4970219;28;20027;-77
2023/10/22 09:14:30;;;;;;;7.20;1.80;;;;;;;11.81;67.57;99515.28;4969621;28;20043;-76
2023/10/22 09:16:55;;;;;;;6.37;1.17;;;;;;;11.90;67.05;99517.72;4952637;28;20031;-75
2023/10/22 09:19:39;;;;;;;7.57;1.33;;;;;;;12.02;66.96;99517.50;4969904;28;20539;-75
2023/10/22 09:22:05;;;;;;;7.47;1.42;;;;;;;12.13;66.72;99513.72;4952811;28;20077;-75
2023/10/22 09:24:34;;;;;;;7.03;1.63;;;;;;;12.23;66.53;99510.00;4969873;28;20050;-75
2023/10/22 09:27:00;;;;;;;7.10;1.27;;;;;;;12.30;66.50;99502.81;4970069;28;20645;-77
2023/10/22 09:29:26;;;;;;;6.97;1.40;;;;;;;12.39;66.34;99504.34;4970215;28;20023;-76
2023/10/22 09:31:55;;;;;;;6.73;1.20;;;;;;;12.47;66.31;99497.13;4969760;28;20037;-75
2023/10/22 09:34:28;;;;;;;5.43;1.40;;;;;;;12.55;66.12;99497.78;4971579;28;20065;-75
2023/10/22 09:36:57;;;;;;;8.90;1.75;;;;;;;12.65;66.13;99490.50;4974027;28;20027;-76
2023/10/22 09:39:36;;;;;;;7.70;1.50;;;;;;;12.73;66.03;99485.03;4974044;28;20049;-76
2023/10/22 09:42:05;;;;;;;8.52;1.55;;;;;;;12.85;65.96;99487.34;4973997;28;20499;-76
2023/10/22 09:44:34;;;;;;;7.33;1.00;;;;;;;12.96;65.78;99491.50;4981822;28;20084;-75
2023/10/22 09:47:01;;;;;;;6.55;1.10;;;;;;;13.07;65.56;99489.41;4993314;28;20037;-75
2023/10/22 09:49:28;;;;;;;7.03;1.10;;;;;;;13.20;65.17;99480.25;4978272;28;20038;-75
2023/10/22 09:51:58;;;;;;;6.25;1.52;;;;;;;13.34;64.91;99484.28;4973840;28;20492;-73
2023/10/22 09:54:36;;;;;;;7.30;1.70;;;;;;;13.49;64.65;99488.28;4973749;28;20026;-74
2023/10/22 09:57:15;;;;;;;6.27;1.27;;;;;;;13.63;64.53;99477.34;4966290;28;20035;-73
2023/10/22 09:59:42;;;;;;;4.82;1.10;;;;;;;13.86;64.35;99465.16;4973728;28;20026;-73
2023/10/22 10:02:18;;;;;;;5.95;1.27;;;;;;;14.10;63.86;99465.31;4973070;28;20414;-73
2023/10/22 10:04:43;;;;;;;8.73;1.10;;;;;;;14.31;63.74;99464.66;4955765;28;20026;-73
2023/10/22 10:07:09;;;;;;;6.87;1.00;;;;;;;14.49;63.01;99455.25;4972483;28;20054;-73
2023/10/22 10:09:35;;;;;;;6.80;1.40;;;;;;;14.68;62.73;99443.16;4973635;28;20058;-74
2023/10/22 10:12:12;;;;;;;7.18;1.38;;;;;;;14.85;62.26;99442.59;4973626;28;20039;-75
2023/10/22 10:14:38;;;;;;;10.80;1.65;;;;;;;15.03;62.28;99427.81;4973482;28;20370;-74
2023/10/22 10:17:04;;;;;;;5.73;1.20;;;;;;;15.19;61.77;99429.00;4968406;28;20110;-74
2023/10/22 10:19:30;;;;;;;8.70;1.38;;;;;;;15.29;61.26;99428.66;4953970;28;20043;-74
2023/10/22 10:21:56;;;;;;;6.78;1.70;;;;;;;15.31;61.11;99414.41;4953956;29;20035;-74
2023/10/22 10:24:29;;;;;;;6.40;1.70;;;;;;;15.30;61.09;99415.34;4953828;29;20450;-76
2023/10/22 10:26:57;;;;;;;8.57;2.27;;;;;;;15.40;61.24;99422.94;4967188;28;20046;-75
2023/10/22 10:29:23;;;;;;;6.05;1.63;;;;;;;15.53;60.75;99418.91;4973259;28;20118;-74
2023/10/22 10:31:52;;;;;;;9.05;1.33;;;;;;;15.64;60.38;99418.50;4972582;28;20035;-76
2023/10/22 10:34:21;;;;;;;8.60;1.40;;;;;;;15.73;60.49;99411.97;4954868;28;20031;-74
2023/10/22 10:36:49;;;;;;;5.90;1.13;;;;;;;15.83;59.90;99408.00;4972836;28;20042;-73
2023/10/22 10:39:36;;;;;;;8.43;1.27;;;;;;;15.83;59.68;99399.19;4972838;28;20037;-78
2023/10/22 10:42:02;;;;;;;6.97;1.08;;;;;;;15.96;59.25;99381.03;4972670;28;20085;-75
2023/10/22 10:44:31;;;;;;;5.75;0.90;;;;;;;15.99;59.58;99387.06;4980245;28;20480;-73
2023/10/22 10:47:21;;;;;;;6.73;0.90;;;;;;;16.03;58.85;99387.81;4991456;28;20022;-74
2023/10/22 10:50:06;;;;;;;5.45;0.68;;;;;;;16.07;58.71;99374.34;4979869;28;20034;-74
2023/10/22 10:52:38;;;;;;;8.43;0.85;;;;;;;16.13;58.67;99373.19;4955197;28;20031;-74
2023/10/22 10:55:19;;;;;;;7.05;1.17;;;;;;;16.12;58.22;99367.97;4957579;28;20027;-75
2023/10/22 10:57:50;;;;;;;6.32;1.05;;;;;;;16.17;58.01;99372.19;4960904;28;20042;-74
2023/10/22 11:00:24;;;;;;;5.67;0.90;;;;;;;16.20;58.07;99361.41;4972345;28;20027;-75
2023/10/22 11:02:51;;;;;;;6.03;0.88;;;;;;;16.28;57.34;99358.44;4972054;28;20569;-74
2023/10/22 11:05:29;;;;;;;5.30;1.20;;;;;;;16.32;56.66;99361.81;4972463;28;20359;-76
2023/10/22 11:07:55;;;;;;;9.18;1.05;;;;;;;16.35;55.75;99357.25;4971130;28;20057;-74
2023/10/22 11:10:20;;;;;;;6.97;0.90;;;;;;;16.43;55.95;99364.91;4972224;28;20037;-73
2023/10/22 11:12:46;;;;;;;8.43;0.90;;;;;;;16.44;55.52;99366.63;4972431;28;20035;-73
2023/10/22 11:15:13;;;;;;;7.70;1.00;;;;;;;16.49;55.07;99363.75;4972000;28;20026;-78
2023/10/22 11:17:41;;;;;;;7.22;1.15;;;;;;;16.50;54.85;99360.16;4971928;28;20041;-81
2023/10/22 11:20:07;;;;;;;9.88;1.15;;;;;;;16.47;55.01;99360.28;4972292;28;20119;-74
2023/10/22 11:22:35;;;;;;;5.70;0.80;;;;;;;16.44;54.75;99363.09;4971980;28;20510;-75
2023/10/22 11:25:03;;;;;;;4.80;0.97;;;;;;;16.36;54.54;99353.66;4971148;28;20487;-74
2023/10/22 11:27:30;;;;;;;5.15;0.82;;;;;;;16.37;54.08;99357.16;4971779;28;20031;-75
2023/10/22 11:29:56;;;;;;;6.45;1.10;;;;;;;16.37;54.12;99351.84;4954480;28;20196;-75
2023/10/22 11:32:21;;;;;;;7.57;0.83;;;;;;;16.36;54.24;99345.69;4971809;28;20408;-74
2023/10/22 11:34:51;;;;;;;6.20;1.00;;;;;;;16.38;54.15;99336.78;4971870;28;20027;-78